Millenium Air

Millenium Air Since 1998



 METAR AND TAF INFORMATION
METAR FOR EKBI
ADDS - METARS form results

(0544 UTC 18 April 2021)
Data provider http://aviationweather.gov/metar/data/
 
METAR text: EKBI 180520Z AUTO 02005KT 9999 BKN100/// 06/00 Q1024
Conditions at: EKBI (BILLUND AIRPORT , DK) observed 0520 UTC 18 April 2021
Temperature: 6.0°C (43°F)
Dewpoint: 0.0°C (32°F) [RH = 65%]
Pressure (altimeter): 30.24 inches Hg (1024.0 mb)
Winds: from the NNE (20 degrees) at 6 MPH (5 knots; 2.6 m/s)
Visibility: 6 or more miles (10+ km)
Ceiling: 10000 feet AGL
Clouds: broken clouds at 10000 feet AGL
Weather: no significant weather observed at this time

METAR text: EKBI 180450Z AUTO 02006KT 9999 BKN100/// 06/01 Q1024
Conditions at: EKBI (BILLUND AIRPORT , DK) observed 0450 UTC 18 April 2021
Temperature: 6.0°C (43°F)
Dewpoint: 1.0°C (34°F) [RH = 70%]
Pressure (altimeter): 30.24 inches Hg (1024.0 mb)
Winds: from the NNE (20 degrees) at 7 MPH (6 knots; 3.1 m/s)
Visibility: 6 or more miles (10+ km)
Ceiling: 10000 feet AGL
Clouds: broken clouds at 10000 feet AGL
Weather: no significant weather observed at this time

Forecast for: EKBI (BILLUND AIRPORT , DK)
Text: TAF EKBI 180504Z 1806/1906 07008KT CAVOK
Forecast period: 0600 UTC 18 April 2021 to 0600 UTC 19 April 2021
Forecast type: FROM: standard forecast or significant change
Winds: from the ENE (70 degrees) at 9 MPH (8 knots; 4.1 m/s)
Visibility: 6 or more miles (10+ km)
Ceiling: unknown
Clouds: missing
Weather: NSW  (no significant weather)

 AIRPORT MAP

 RUNWAY INFORMATION
Runway 09 Runway length 10172 ft Runway width 148 ft
Runway elevation 215 ft Runway displaced threshold 492 ft Runway heading 87
Runway 27 Runway length 10172 ft Runway width 148 ft
Runway elevation 244 ft Runway displaced threshold 492 ft Runway heading 267

 AIRPORT FREQUENCIES
Type APP Name APP Frequency 127.575 MHZ
Type ATIS Name ATIS Frequency 118.775 MHZ
Type MISC Name CARGO HAND Frequency 122.075 MHZ
Type MISC Name HANDLING Frequency 130.85 MHZ
Type OPS Name ARPT OFFIC Frequency 131.5 MHZ
Type TWR Name TWR Frequency 119 MHZ

 AIRPORT NEAR NAVIGATION AIDS
Type NDB Name Billund Frequency 341 KHZ